sensor_id;sensor_type;location;lat;lon;timestamp;temperature;humidity
59128;DHT22;44912;52.754;5.994;2023-04-07T00:00:28;8.50;99.90
59128;DHT22;44912;52.754;5.994;2023-04-07T00:02:54;8.50;99.90
59128;DHT22;44912;52.754;5.994;2023-04-07T00:05:20;8.60;99.90
59128;DHT22;44912;52.754;5.994;2023-04-07T00:07:45;8.50;99.90
59128;DHT22;44912;52.754;5.994;2023-04-07T00:10:11;8.50;99.90
59128;DHT22;44912;52.754;5.994;2023-04-07T00:12:36;8.60;99.90
59128;DHT22;44912;52.754;5.994;2023-04-07T00:15:02;8.60;99.90
59128;DHT22;44912;52.754;5.994;2023-04-07T00:17:27;8.60;99.90
59128;DHT22;44912;52.754;5.994;2023-04-07T00:19:53;8.60;99.90
59128;DHT22;44912;52.754;5.994;2023-04-07T00:22:18;8.60;99.90
59128;DHT22;44912;52.754;5.994;2023-04-07T00:24:44;8.60;99.90
59128;DHT22;44912;52.754;5.994;2023-04-07T00:27:10;8.60;99.90
59128;DHT22;44912;52.754;5.994;2023-04-07T00:29:35;8.60;99.90
59128;DHT22;44912;52.754;5.994;2023-04-07T00:32:01;8.60;99.90
59128;DHT22;44912;52.754;5.994;2023-04-07T00:34:26;8.70;99.90
59128;DHT22;44912;52.754;5.994;2023-04-07T00:36:52;8.70;99.90
59128;DHT22;44912;52.754;5.994;2023-04-07T00:39:18;8.70;99.90
59128;DHT22;44912;52.754;5.994;2023-04-07T00:41:45;8.70;99.90
59128;DHT22;44912;52.754;5.994;2023-04-07T00:44:10;8.70;99.90
59128;DHT22;44912;52.754;5.994;2023-04-07T00:46:36;8.70;99.90
59128;DHT22;44912;52.754;5.994;2023-04-07T00:49:02;8.70;99.90
59128;DHT22;44912;52.754;5.994;2023-04-07T00:51:28;8.70;99.90
59128;DHT22;44912;52.754;5.994;2023-04-07T00:53:54;8.70;99.90
59128;DHT22;44912;52.754;5.994;2023-04-07T00:56:19;8.70;99.90
59128;DHT22;44912;52.754;5.994;2023-04-07T00:58:45;8.70;99.90
59128;DHT22;44912;52.754;5.994;2023-04-07T01:01:12;8.70;99.90
59128;DHT22;44912;52.754;5.994;2023-04-07T01:06:27;8.70;99.90
59128;DHT22;44912;52.754;5.994;2023-04-07T01:09:12;8.60;99.90
59128;DHT22;44912;52.754;5.994;2023-04-07T01:11:43;8.60;99.90
59128;DHT22;44912;52.754;5.994;2023-04-07T01:14:14;8.60;99.90
59128;DHT22;44912;52.754;5.994;2023-04-07T01:16:51;8.50;99.90
59128;DHT22;44912;52.754;5.994;2023-04-07T01:19:36;8.50;99.90
59128;DHT22;44912;52.754;5.994;2023-04-07T01:22:19;8.50;99.90
59128;DHT22;44912;52.754;5.994;2023-04-07T01:27:31;8.50;99.90
59128;DHT22;44912;52.754;5.994;2023-04-07T01:30:00;8.50;99.90
59128;DHT22;44912;52.754;5.994;2023-04-07T01:32:29;8.40;99.90
59128;DHT22;44912;52.754;5.994;2023-04-07T01:34:56;8.40;99.90
59128;DHT22;44912;52.754;5.994;2023-04-07T01:37:23;8.50;99.90
59128;DHT22;44912;52.754;5.994;2023-04-07T01:39:51;8.40;99.90
59128;DHT22;44912;52.754;5.994;2023-04-07T01:42:18;8.50;99.90
59128;DHT22;44912;52.754;5.994;2023-04-07T01:44:44;8.40;99.90
59128;DHT22;44912;52.754;5.994;2023-04-07T01:47:11;8.40;99.90
59128;DHT22;44912;52.754;5.994;2023-04-07T01:49:37;8.50;99.90
59128;DHT22;44912;52.754;5.994;2023-04-07T01:52:05;8.40;99.90
59128;DHT22;44912;52.754;5.994;2023-04-07T01:54:32;8.50;99.90
59128;DHT22;44912;52.754;5.994;2023-04-07T01:56:58;8.50;99.90
59128;DHT22;44912;52.754;5.994;2023-04-07T01:59:24;8.50;99.90
59128;DHT22;44912;52.754;5.994;2023-04-07T02:01:50;8.50;99.90
59128;DHT22;44912;52.754;5.994;2023-04-07T02:04:34;8.50;99.90
59128;DHT22;44912;52.754;5.994;2023-04-07T02:07:18;8.50;99.90
59128;DHT22;44912;52.754;5.994;2023-04-07T02:09:46;8.50;99.90
59128;DHT22;44912;52.754;5.994;2023-04-07T02:12:13;8.50;99.90
59128;DHT22;44912;52.754;5.994;2023-04-07T02:14:40;8.50;99.90
59128;DHT22;44912;52.754;5.994;2023-04-07T02:17:06;8.50;99.90
59128;DHT22;44912;52.754;5.994;2023-04-07T02:19:33;8.50;99.90
59128;DHT22;44912;52.754;5.994;2023-04-07T02:22:02;8.50;99.90
59128;DHT22;44912;52.754;5.994;2023-04-07T02:24:28;8.50;99.90
59128;DHT22;44912;52.754;5.994;2023-04-07T02:26:53;8.50;99.90
59128;DHT22;44912;52.754;5.994;2023-04-07T02:29:19;8.50;99.90
59128;DHT22;44912;52.754;5.994;2023-04-07T02:31:44;8.50;99.90
59128;DHT22;44912;52.754;5.994;2023-04-07T02:34:10;8.60;99.90
59128;DHT22;44912;52.754;5.994;2023-04-07T02:36:36;8.50;99.90
59128;DHT22;44912;52.754;5.994;2023-04-07T02:39:01;8.60;99.90
59128;DHT22;44912;52.754;5.994;2023-04-07T02:41:27;8.60;99.90
59128;DHT22;44912;52.754;5.994;2023-04-07T02:43:52;8.50;99.90
59128;DHT22;44912;52.754;5.994;2023-04-07T02:46:18;8.60;99.90
59128;DHT22;44912;52.754;5.994;2023-04-07T02:48:43;8.50;99.90
59128;DHT22;44912;52.754;5.994;2023-04-07T02:51:09;8.60;99.90
59128;DHT22;44912;52.754;5.994;2023-04-07T02:53:35;8.50;99.90
59128;DHT22;44912;52.754;5.994;2023-04-07T02:56:00;8.50;99.90
59128;DHT22;44912;52.754;5.994;2023-04-07T02:58:26;8.50;99.90
59128;DHT22;44912;52.754;5.994;2023-04-07T03:00:51;8.50;99.90
59128;DHT22;44912;52.754;5.994;2023-04-07T03:03:17;8.50;99.90
59128;DHT22;44912;52.754;5.994;2023-04-07T03:05:42;8.50;99.90
59128;DHT22;44912;52.754;5.994;2023-04-07T03:08:08;8.50;99.90
59128;DHT22;44912;52.754;5.994;2023-04-07T03:10:33;8.50;99.90
59128;DHT22;44912;52.754;5.994;2023-04-07T03:13:00;8.50;99.90
59128;DHT22;44912;52.754;5.994;2023-04-07T03:15:25;8.50;99.90
59128;DHT22;44912;52.754;5.994;2023-04-07T03:17:51;8.50;99.90
59128;DHT22;44912;52.754;5.994;2023-04-07T03:20:17;8.50;99.90
59128;DHT22;44912;52.754;5.994;2023-04-07T03:22:42;8.50;99.90
59128;DHT22;44912;52.754;5.994;2023-04-07T03:25:09;8.50;99.90
59128;DHT22;44912;52.754;5.994;2023-04-07T03:27:35;8.50;99.90
59128;DHT22;44912;52.754;5.994;2023-04-07T03:30:01;8.50;99.90
59128;DHT22;44912;52.754;5.994;2023-04-07T03:32:26;8.50;99.90
59128;DHT22;44912;52.754;5.994;2023-04-07T03:34:52;8.50;99.90
59128;DHT22;44912;52.754;5.994;2023-04-07T03:37:17;8.50;99.90
59128;DHT22;44912;52.754;5.994;2023-04-07T03:39:43;8.50;99.90
59128;DHT22;44912;52.754;5.994;2023-04-07T03:42:09;8.50;99.90
59128;DHT22;44912;52.754;5.994;2023-04-07T03:44:34;8.50;99.90
59128;DHT22;44912;52.754;5.994;2023-04-07T03:47:00;8.50;99.90
59128;DHT22;44912;52.754;5.994;2023-04-07T03:49:26;8.40;99.90
59128;DHT22;44912;52.754;5.994;2023-04-07T03:51:51;8.50;99.90
59128;DHT22;44912;52.754;5.994;2023-04-07T03:54:17;8.40;99.90
59128;DHT22;44912;52.754;5.994;2023-04-07T03:56:42;8.50;99.90
59128;DHT22;44912;52.754;5.994;2023-04-07T03:59:08;8.40;99.90
59128;DHT22;44912;52.754;5.994;2023-04-07T04:01:33;8.40;99.90
59128;DHT22;44912;52.754;5.994;2023-04-07T04:04:01;8.50;99.90
59128;DHT22;44912;52.754;5.994;2023-04-07T04:06:26;8.50;99.90
59128;DHT22;44912;52.754;5.994;2023-04-07T04:08:52;8.40;99.90
59128;DHT22;44912;52.754;5.994;2023-04-07T04:11:17;8.40;99.90
59128;DHT22;44912;52.754;5.994;2023-04-07T04:13:43;8.40;99.90
59128;DHT22;44912;52.754;5.994;2023-04-07T04:16:09;8.40;99.90
59128;DHT22;44912;52.754;5.994;2023-04-07T04:18:34;8.40;99.90
59128;DHT22;44912;52.754;5.994;2023-04-07T04:21:00;8.40;99.90
59128;DHT22;44912;52.754;5.994;2023-04-07T04:23:25;8.40;99.90
59128;DHT22;44912;52.754;5.994;2023-04-07T04:25:51;8.40;99.90
59128;DHT22;44912;52.754;5.994;2023-04-07T04:28:16;8.40;99.90
59128;DHT22;44912;52.754;5.994;2023-04-07T04:30:42;8.40;99.90
59128;DHT22;44912;52.754;5.994;2023-04-07T04:33:08;8.40;99.90
59128;DHT22;44912;52.754;5.994;2023-04-07T04:35:33;8.40;99.90
59128;DHT22;44912;52.754;5.994;2023-04-07T04:37:59;8.40;99.90
59128;DHT22;44912;52.754;5.994;2023-04-07T04:40:24;8.40;99.90
59128;DHT22;44912;52.754;5.994;2023-04-07T04:42:50;8.40;99.90
59128;DHT22;44912;52.754;5.994;2023-04-07T04:45:15;8.40;99.90
59128;DHT22;44912;52.754;5.994;2023-04-07T04:47:41;8.40;99.90
59128;DHT22;44912;52.754;5.994;2023-04-07T04:50:08;8.40;99.90
59128;DHT22;44912;52.754;5.994;2023-04-07T04:52:34;8.40;99.90
59128;DHT22;44912;52.754;5.994;2023-04-07T04:55:00;8.40;99.90
59128;DHT22;44912;52.754;5.994;2023-04-07T04:57:25;8.40;99.90
59128;DHT22;44912;52.754;5.994;2023-04-07T04:59:51;8.50;99.90
59128;DHT22;44912;52.754;5.994;2023-04-07T05:02:16;8.50;99.90
59128;DHT22;44912;52.754;5.994;2023-04-07T05:04:42;8.50;99.90
59128;DHT22;44912;52.754;5.994;2023-04-07T05:07:08;8.50;99.90
59128;DHT22;44912;52.754;5.994;2023-04-07T05:09:33;8.40;99.90
59128;DHT22;44912;52.754;5.994;2023-04-07T05:11:59;8.40;99.90
59128;DHT22;44912;52.754;5.994;2023-04-07T05:14:26;8.50;99.90
59128;DHT22;44912;52.754;5.994;2023-04-07T05:16:51;8.50;99.90
59128;DHT22;44912;52.754;5.994;2023-04-07T05:19:21;8.50;99.90
59128;DHT22;44912;52.754;5.994;2023-04-07T05:21:46;8.50;99.90
59128;DHT22;44912;52.754;5.994;2023-04-07T05:24:12;8.50;99.90
59128;DHT22;44912;52.754;5.994;2023-04-07T05:26:37;8.50;99.90
59128;DHT22;44912;52.754;5.994;2023-04-07T05:29:03;8.50;99.90
59128;DHT22;44912;52.754;5.994;2023-04-07T05:31:28;8.50;99.90
59128;DHT22;44912;52.754;5.994;2023-04-07T05:33:54;8.50;99.90
59128;DHT22;44912;52.754;5.994;2023-04-07T05:36:20;8.50;99.90
59128;DHT22;44912;52.754;5.994;2023-04-07T05:38:46;8.60;99.90
59128;DHT22;44912;52.754;5.994;2023-04-07T05:41:11;8.60;99.90
59128;DHT22;44912;52.754;5.994;2023-04-07T05:43:37;8.60;99.90
59128;DHT22;44912;52.754;5.994;2023-04-07T05:46:02;8.60;99.90
59128;DHT22;44912;52.754;5.994;2023-04-07T05:48:28;8.60;99.90
59128;DHT22;44912;52.754;5.994;2023-04-07T05:50:53;8.70;99.90
59128;DHT22;44912;52.754;5.994;2023-04-07T05:53:19;8.70;99.90
59128;DHT22;44912;52.754;5.994;2023-04-07T05:55:44;8.70;99.90
59128;DHT22;44912;52.754;5.994;2023-04-07T05:58:10;8.70;99.90
59128;DHT22;44912;52.754;5.994;2023-04-07T06:00:35;8.70;99.90
59128;DHT22;44912;52.754;5.994;2023-04-07T06:03:01;8.70;99.90
59128;DHT22;44912;52.754;5.994;2023-04-07T06:05:27;8.70;99.90
59128;DHT22;44912;52.754;5.994;2023-04-07T06:07:53;8.80;99.90
59128;DHT22;44912;52.754;5.994;2023-04-07T06:10:18;8.80;99.90
59128;DHT22;44912;52.754;5.994;2023-04-07T06:12:44;8.80;99.90
59128;DHT22;44912;52.754;5.994;2023-04-07T06:15:10;8.80;99.90
59128;DHT22;44912;52.754;5.994;2023-04-07T06:17:36;8.80;99.90
59128;DHT22;44912;52.754;5.994;2023-04-07T06:20:01;8.80;99.90
59128;DHT22;44912;52.754;5.994;2023-04-07T06:22:27;8.90;99.90
59128;DHT22;44912;52.754;5.994;2023-04-07T06:24:52;8.90;99.90
59128;DHT22;44912;52.754;5.994;2023-04-07T06:27:18;8.90;99.90
59128;DHT22;44912;52.754;5.994;2023-04-07T06:29:43;8.90;99.90
59128;DHT22;44912;52.754;5.994;2023-04-07T06:32:09;8.90;99.90
59128;DHT22;44912;52.754;5.994;2023-04-07T06:34:35;8.90;99.90
59128;DHT22;44912;52.754;5.994;2023-04-07T06:37:00;9.00;99.90
59128;DHT22;44912;52.754;5.994;2023-04-07T06:39:26;9.00;99.90
59128;DHT22;44912;52.754;5.994;2023-04-07T06:41:52;9.00;99.90
59128;DHT22;44912;52.754;5.994;2023-04-07T06:44:18;9.10;99.90
59128;DHT22;44912;52.754;5.994;2023-04-07T06:46:43;9.10;99.90
59128;DHT22;44912;52.754;5.994;2023-04-07T06:49:11;9.10;99.90
59128;DHT22;44912;52.754;5.994;2023-04-07T06:51:37;9.10;99.90
59128;DHT22;44912;52.754;5.994;2023-04-07T06:54:02;9.20;99.90
59128;DHT22;44912;52.754;5.994;2023-04-07T06:56:29;9.20;99.90
59128;DHT22;44912;52.754;5.994;2023-04-07T06:58:55;9.20;99.90
59128;DHT22;44912;52.754;5.994;2023-04-07T07:01:21;9.20;99.90
59128;DHT22;44912;52.754;5.994;2023-04-07T07:03:46;9.30;99.90
59128;DHT22;44912;52.754;5.994;2023-04-07T07:06:12;9.30;99.90
59128;DHT22;44912;52.754;5.994;2023-04-07T07:08:37;9.30;99.90
59128;DHT22;44912;52.754;5.994;2023-04-07T07:11:03;9.40;99.90
59128;DHT22;44912;52.754;5.994;2023-04-07T07:13:29;9.40;99.90
59128;DHT22;44912;52.754;5.994;2023-04-07T07:15:54;9.40;99.90
59128;DHT22;44912;52.754;5.994;2023-04-07T07:18:20;9.40;99.90
59128;DHT22;44912;52.754;5.994;2023-04-07T07:20:46;9.50;99.90
59128;DHT22;44912;52.754;5.994;2023-04-07T07:23:11;9.50;99.90
59128;DHT22;44912;52.754;5.994;2023-04-07T07:25:37;9.50;99.90
59128;DHT22;44912;52.754;5.994;2023-04-07T07:28:02;9.60;99.90
59128;DHT22;44912;52.754;5.994;2023-04-07T07:30:28;9.70;99.90
59128;DHT22;44912;52.754;5.994;2023-04-07T07:32:54;9.70;99.90
59128;DHT22;44912;52.754;5.994;2023-04-07T07:35:21;9.70;99.90
59128;DHT22;44912;52.754;5.994;2023-04-07T07:37:47;9.70;99.90
59128;DHT22;44912;52.754;5.994;2023-04-07T07:40:13;9.80;99.90
59128;DHT22;44912;52.754;5.994;2023-04-07T07:42:39;9.80;99.90
59128;DHT22;44912;52.754;5.994;2023-04-07T07:45:05;9.80;99.90
59128;DHT22;44912;52.754;5.994;2023-04-07T07:47:31;9.90;99.90
59128;DHT22;44912;52.754;5.994;2023-04-07T07:49:56;9.90;99.90
59128;DHT22;44912;52.754;5.994;2023-04-07T07:52:22;9.90;99.90
59128;DHT22;44912;52.754;5.994;2023-04-07T07:54:49;9.90;99.90
59128;DHT22;44912;52.754;5.994;2023-04-07T07:57:15;9.90;99.90
59128;DHT22;44912;52.754;5.994;2023-04-07T07:59:41;10.00;99.90
59128;DHT22;44912;52.754;5.994;2023-04-07T08:02:07;10.00;99.90
59128;DHT22;44912;52.754;5.994;2023-04-07T08:04:34;10.00;99.90
59128;DHT22;44912;52.754;5.994;2023-04-07T08:06:59;10.00;99.90
59128;DHT22;44912;52.754;5.994;2023-04-07T08:09:25;10.00;99.90
59128;DHT22;44912;52.754;5.994;2023-04-07T08:11:51;9.90;99.90
59128;DHT22;44912;52.754;5.994;2023-04-07T08:14:17;9.90;99.90
59128;DHT22;44912;52.754;5.994;2023-04-07T08:16:42;9.90;99.90
59128;DHT22;44912;52.754;5.994;2023-04-07T08:19:08;9.90;99.90
59128;DHT22;44912;52.754;5.994;2023-04-07T08:21:34;9.90;99.90
59128;DHT22;44912;52.754;5.994;2023-04-07T08:24:00;9.90;99.90
59128;DHT22;44912;52.754;5.994;2023-04-07T08:26:26;9.90;99.90
59128;DHT22;44912;52.754;5.994;2023-04-07T08:28:52;9.90;99.90
59128;DHT22;44912;52.754;5.994;2023-04-07T08:31:18;9.90;99.90
59128;DHT22;44912;52.754;5.994;2023-04-07T08:33:44;9.90;99.90
59128;DHT22;44912;52.754;5.994;2023-04-07T08:36:09;9.90;99.90
59128;DHT22;44912;52.754;5.994;2023-04-07T08:38:35;9.90;99.90
59128;DHT22;44912;52.754;5.994;2023-04-07T08:41:11;9.80;99.90
59128;DHT22;44912;52.754;5.994;2023-04-07T08:43:38;9.90;99.90
59128;DHT22;44912;52.754;5.994;2023-04-07T08:46:04;9.90;99.90
59128;DHT22;44912;52.754;5.994;2023-04-07T08:48:30;9.80;99.90
59128;DHT22;44912;52.754;5.994;2023-04-07T08:51:04;9.80;99.90
59128;DHT22;44912;52.754;5.994;2023-04-07T08:53:39;9.80;99.90
59128;DHT22;44912;52.754;5.994;2023-04-07T08:56:06;9.80;99.90
59128;DHT22;44912;52.754;5.994;2023-04-07T08:58:34;9.80;99.90
59128;DHT22;44912;52.754;5.994;2023-04-07T09:01:01;9.80;99.90
59128;DHT22;44912;52.754;5.994;2023-04-07T09:03:28;9.80;99.90
59128;DHT22;44912;52.754;5.994;2023-04-07T09:05:57;9.80;99.90
59128;DHT22;44912;52.754;5.994;2023-04-07T09:08:23;9.80;99.90
59128;DHT22;44912;52.754;5.994;2023-04-07T09:10:49;9.80;99.90
59128;DHT22;44912;52.754;5.994;2023-04-07T09:13:14;9.80;99.90
59128;DHT22;44912;52.754;5.994;2023-04-07T09:15:41;9.80;99.90
59128;DHT22;44912;52.754;5.994;2023-04-07T09:18:06;9.80;99.90
59128;DHT22;44912;52.754;5.994;2023-04-07T09:20:58;9.80;99.90
59128;DHT22;44912;52.754;5.994;2023-04-07T09:23:44;9.80;99.90
59128;DHT22;44912;52.754;5.994;2023-04-07T09:26:24;9.90;99.90
59128;DHT22;44912;52.754;5.994;2023-04-07T09:31:18;9.80;99.90
59128;DHT22;44912;52.754;5.994;2023-04-07T09:33:46;9.70;99.90
59128;DHT22;44912;52.754;5.994;2023-04-07T09:36:12;9.80;99.90
59128;DHT22;44912;52.754;5.994;2023-04-07T09:38:39;9.70;99.90
59128;DHT22;44912;52.754;5.994;2023-04-07T09:41:12;9.70;99.90
59128;DHT22;44912;52.754;5.994;2023-04-07T09:43:41;9.70;99.90
59128;DHT22;44912;52.754;5.994;2023-04-07T09:46:18;9.70;99.90
59128;DHT22;44912;52.754;5.994;2023-04-07T09:48:45;9.70;99.90
59128;DHT22;44912;52.754;5.994;2023-04-07T09:51:15;9.70;99.90
59128;DHT22;44912;52.754;5.994;2023-04-07T09:56:10;9.70;99.90
59128;DHT22;44912;52.754;5.994;2023-04-07T09:58:39;9.70;99.90
59128;DHT22;44912;52.754;5.994;2023-04-07T10:01:08;9.70;99.90
59128;DHT22;44912;52.754;5.994;2023-04-07T10:03:34;9.70;99.90
59128;DHT22;44912;52.754;5.994;2023-04-07T10:06:01;9.80;99.90
59128;DHT22;44912;52.754;5.994;2023-04-07T10:08:32;9.70;99.90
59128;DHT22;44912;52.754;5.994;2023-04-07T10:11:00;9.70;99.90
59128;DHT22;44912;52.754;5.994;2023-04-07T10:13:29;9.70;99.90
59128;DHT22;44912;52.754;5.994;2023-04-07T10:15:55;9.80;99.90
59128;DHT22;44912;52.754;5.994;2023-04-07T10:18:22;9.80;99.90
59128;DHT22;44912;52.754;5.994;2023-04-07T10:20:51;9.80;99.90
59128;DHT22;44912;52.754;5.994;2023-04-07T10:23:25;9.80;99.90
59128;DHT22;44912;52.754;5.994;2023-04-07T10:25:54;9.80;99.90
59128;DHT22;44912;52.754;5.994;2023-04-07T10:28:22;9.80;99.90
59128;DHT22;44912;52.754;5.994;2023-04-07T10:30:49;9.80;99.90
59128;DHT22;44912;52.754;5.994;2023-04-07T10:33:15;9.80;99.90
59128;DHT22;44912;52.754;5.994;2023-04-07T10:36:03;9.80;99.90
59128;DHT22;44912;52.754;5.994;2023-04-07T10:38:30;9.90;99.90
59128;DHT22;44912;52.754;5.994;2023-04-07T10:40:56;9.90;99.90
59128;DHT22;44912;52.754;5.994;2023-04-07T10:43:38;9.90;99.90
59128;DHT22;44912;52.754;5.994;2023-04-07T10:46:05;10.00;99.90
59128;DHT22;44912;52.754;5.994;2023-04-07T10:48:30;10.00;99.90
59128;DHT22;44912;52.754;5.994;2023-04-07T10:53:29;10.20;99.90
59128;DHT22;44912;52.754;5.994;2023-04-07T10:56:02;10.20;99.90
59128;DHT22;44912;52.754;5.994;2023-04-07T10:58:32;10.30;99.90
59128;DHT22;44912;52.754;5.994;2023-04-07T11:03:33;10.30;99.90
59128;DHT22;44912;52.754;5.994;2023-04-07T11:06:09;10.30;99.90
59128;DHT22;44912;52.754;5.994;2023-04-07T11:11:07;10.40;99.90
59128;DHT22;44912;52.754;5.994;2023-04-07T11:13:43;10.40;99.90
59128;DHT22;44912;52.754;5.994;2023-04-07T11:16:09;10.50;99.90
59128;DHT22;44912;52.754;5.994;2023-04-07T11:18:36;10.60;99.90
59128;DHT22;44912;52.754;5.994;2023-04-07T11:21:02;10.60;99.90
59128;DHT22;44912;52.754;5.994;2023-04-07T11:23:37;10.60;99.90
59128;DHT22;44912;52.754;5.994;2023-04-07T11:26:03;10.60;99.90
59128;DHT22;44912;52.754;5.994;2023-04-07T11:28:29;10.50;99.90
59128;DHT22;44912;52.754;5.994;2023-04-07T11:30:56;10.50;99.90
59128;DHT22;44912;52.754;5.994;2023-04-07T11:33:25;10.50;99.90
59128;DHT22;44912;52.754;5.994;2023-04-07T11:35:56;10.50;99.90
59128;DHT22;44912;52.754;5.994;2023-04-07T11:38:26;10.60;99.90
59128;DHT22;44912;52.754;5.994;2023-04-07T11:40:53;10.70;99.90
59128;DHT22;44912;52.754;5.994;2023-04-07T11:43:23;10.70;99.90
59128;DHT22;44912;52.754;5.994;2023-04-07T11:46:12;10.70;99.90
59128;DHT22;44912;52.754;5.994;2023-04-07T11:48:40;10.70;99.90
59128;DHT22;44912;52.754;5.994;2023-04-07T11:51:06;10.70;99.90
59128;DHT22;44912;52.754;5.994;2023-04-07T11:53:39;10.70;99.90
59128;DHT22;44912;52.754;5.994;2023-04-07T11:56:07;10.70;99.90
59128;DHT22;44912;52.754;5.994;2023-04-07T11:58:34;10.70;99.90
59128;DHT22;44912;52.754;5.994;2023-04-07T12:01:02;10.70;99.90
59128;DHT22;44912;52.754;5.994;2023-04-07T12:03:32;10.70;99.90
59128;DHT22;44912;52.754;5.994;2023-04-07T12:05:58;10.70;99.90
59128;DHT22;44912;52.754;5.994;2023-04-07T12:08:43;10.70;99.90
59128;DHT22;44912;52.754;5.994;2023-04-07T12:11:09;10.70;99.90
59128;DHT22;44912;52.754;5.994;2023-04-07T12:13:36;10.60;99.90
59128;DHT22;44912;52.754;5.994;2023-04-07T12:16:01;10.60;99.90
59128;DHT22;44912;52.754;5.994;2023-04-07T12:18:28;10.60;99.90
59128;DHT22;44912;52.754;5.994;2023-04-07T12:20:54;10.60;99.90
59128;DHT22;44912;52.754;5.994;2023-04-07T12:23:19;10.60;99.90
59128;DHT22;44912;52.754;5.994;2023-04-07T12:25:45;10.60;99.90
59128;DHT22;44912;52.754;5.994;2023-04-07T12:28:11;10.70;99.90
59128;DHT22;44912;52.754;5.994;2023-04-07T12:30:36;10.70;99.90
59128;DHT22;44912;52.754;5.994;2023-04-07T12:33:02;10.70;99.90
59128;DHT22;44912;52.754;5.994;2023-04-07T12:35:28;10.70;99.90
59128;DHT22;44912;52.754;5.994;2023-04-07T12:37:54;10.60;99.90
59128;DHT22;44912;52.754;5.994;2023-04-07T12:40:24;10.60;99.90
59128;DHT22;44912;52.754;5.994;2023-04-07T12:42:50;10.60;99.90
59128;DHT22;44912;52.754;5.994;2023-04-07T12:45:16;10.70;99.90
59128;DHT22;44912;52.754;5.994;2023-04-07T12:47:43;10.70;99.90
59128;DHT22;44912;52.754;5.994;2023-04-07T12:50:09;10.70;99.90
59128;DHT22;44912;52.754;5.994;2023-04-07T12:52:35;10.80;99.90
59128;DHT22;44912;52.754;5.994;2023-04-07T12:55:01;10.90;99.90
59128;DHT22;44912;52.754;5.994;2023-04-07T12:57:27;10.90;99.90
59128;DHT22;44912;52.754;5.994;2023-04-07T12:59:53;11.00;99.90
59128;DHT22;44912;52.754;5.994;2023-04-07T13:02:19;11.00;99.90
59128;DHT22;44912;52.754;5.994;2023-04-07T13:04:45;11.20;99.90
59128;DHT22;44912;52.754;5.994;2023-04-07T13:07:14;11.20;99.90
59128;DHT22;44912;52.754;5.994;2023-04-07T13:09:43;11.30;99.90
59128;DHT22;44912;52.754;5.994;2023-04-07T13:12:10;11.40;99.90
59128;DHT22;44912;52.754;5.994;2023-04-07T13:14:37;11.40;99.90
59128;DHT22;44912;52.754;5.994;2023-04-07T13:17:03;11.40;99.90
59128;DHT22;44912;52.754;5.994;2023-04-07T13:19:29;11.50;99.90
59128;DHT22;44912;52.754;5.994;2023-04-07T13:21:55;11.60;99.90
59128;DHT22;44912;52.754;5.994;2023-04-07T13:24:20;11.60;99.90
59128;DHT22;44912;52.754;5.994;2023-04-07T13:26:46;11.60;99.90
59128;DHT22;44912;52.754;5.994;2023-04-07T13:29:12;11.60;99.90
59128;DHT22;44912;52.754;5.994;2023-04-07T13:31:37;11.60;99.90
59128;DHT22;44912;52.754;5.994;2023-04-07T13:34:03;11.60;99.90
59128;DHT22;44912;52.754;5.994;2023-04-07T13:36:28;11.60;99.90
59128;DHT22;44912;52.754;5.994;2023-04-07T13:38:55;11.50;99.90
59128;DHT22;44912;52.754;5.994;2023-04-07T13:41:21;11.50;99.90
59128;DHT22;44912;52.754;5.994;2023-04-07T13:43:47;11.40;99.90
59128;DHT22;44912;52.754;5.994;2023-04-07T13:46:13;11.40;99.90
59128;DHT22;44912;52.754;5.994;2023-04-07T13:48:44;11.20;99.90
59128;DHT22;44912;52.754;5.994;2023-04-07T13:51:09;11.20;99.90
59128;DHT22;44912;52.754;5.994;2023-04-07T13:53:35;11.20;99.90
59128;DHT22;44912;52.754;5.994;2023-04-07T13:56:01;11.10;99.90
59128;DHT22;44912;52.754;5.994;2023-04-07T13:58:28;11.10;99.90
59128;DHT22;44912;52.754;5.994;2023-04-07T14:00:54;11.10;99.90
59128;DHT22;44912;52.754;5.994;2023-04-07T14:03:20;11.00;99.90
59128;DHT22;44912;52.754;5.994;2023-04-07T14:05:47;11.00;99.90
59128;DHT22;44912;52.754;5.994;2023-04-07T14:08:12;11.00;99.90
59128;DHT22;44912;52.754;5.994;2023-04-07T14:10:39;11.10;99.90
59128;DHT22;44912;52.754;5.994;2023-04-07T14:13:05;11.10;99.90
59128;DHT22;44912;52.754;5.994;2023-04-07T14:15:31;11.10;99.90
59128;DHT22;44912;52.754;5.994;2023-04-07T14:17:56;11.10;99.90
59128;DHT22;44912;52.754;5.994;2023-04-07T14:20:22;11.10;99.90
59128;DHT22;44912;52.754;5.994;2023-04-07T14:22:47;11.00;99.90
59128;DHT22;44912;52.754;5.994;2023-04-07T14:25:13;11.10;99.90
59128;DHT22;44912;52.754;5.994;2023-04-07T14:27:38;11.00;99.90
59128;DHT22;44912;52.754;5.994;2023-04-07T14:30:04;11.00;99.90
59128;DHT22;44912;52.754;5.994;2023-04-07T14:32:30;11.00;99.90
59128;DHT22;44912;52.754;5.994;2023-04-07T14:34:58;11.00;99.90
59128;DHT22;44912;52.754;5.994;2023-04-07T14:37:23;11.00;99.90
59128;DHT22;44912;52.754;5.994;2023-04-07T14:39:51;11.10;99.90
59128;DHT22;44912;52.754;5.994;2023-04-07T14:42:18;11.10;99.90
59128;DHT22;44912;52.754;5.994;2023-04-07T14:44:43;11.00;99.90
59128;DHT22;44912;52.754;5.994;2023-04-07T14:47:09;11.10;99.90
59128;DHT22;44912;52.754;5.994;2023-04-07T14:49:34;11.10;99.90
59128;DHT22;44912;52.754;5.994;2023-04-07T14:52:00;11.20;99.90
59128;DHT22;44912;52.754;5.994;2023-04-07T14:54:25;11.20;99.90
59128;DHT22;44912;52.754;5.994;2023-04-07T14:56:51;11.30;99.90
59128;DHT22;44912;52.754;5.994;2023-04-07T14:59:16;11.40;99.90
59128;DHT22;44912;52.754;5.994;2023-04-07T15:01:42;11.40;99.90
59128;DHT22;44912;52.754;5.994;2023-04-07T15:04:07;11.30;99.90
59128;DHT22;44912;52.754;5.994;2023-04-07T15:06:33;11.40;99.90
59128;DHT22;44912;52.754;5.994;2023-04-07T15:08:58;11.40;99.90
59128;DHT22;44912;52.754;5.994;2023-04-07T15:11:24;11.40;99.90
59128;DHT22;44912;52.754;5.994;2023-04-07T15:13:50;11.40;99.90
59128;DHT22;44912;52.754;5.994;2023-04-07T15:16:16;11.30;99.90
59128;DHT22;44912;52.754;5.994;2023-04-07T15:18:44;11.30;99.90
59128;DHT22;44912;52.754;5.994;2023-04-07T15:21:12;11.40;99.90
59128;DHT22;44912;52.754;5.994;2023-04-07T15:23:38;11.30;99.90
59128;DHT22;44912;52.754;5.994;2023-04-07T15:26:06;11.40;99.90
59128;DHT22;44912;52.754;5.994;2023-04-07T15:28:32;11.40;99.90
59128;DHT22;44912;52.754;5.994;2023-04-07T15:30:59;11.40;99.90
59128;DHT22;44912;52.754;5.994;2023-04-07T15:33:25;11.40;99.90
59128;DHT22;44912;52.754;5.994;2023-04-07T15:35:50;11.40;99.90
59128;DHT22;44912;52.754;5.994;2023-04-07T15:38:16;11.40;99.90
59128;DHT22;44912;52.754;5.994;2023-04-07T15:40:42;11.50;99.90
59128;DHT22;44912;52.754;5.994;2023-04-07T15:43:08;11.50;99.90
59128;DHT22;44912;52.754;5.994;2023-04-07T15:45:42;11.50;99.90
59128;DHT22;44912;52.754;5.994;2023-04-07T15:48:12;11.60;99.90
59128;DHT22;44912;52.754;5.994;2023-04-07T15:50:38;11.60;99.90
59128;DHT22;44912;52.754;5.994;2023-04-07T15:53:04;11.70;99.90
59128;DHT22;44912;52.754;5.994;2023-04-07T15:55:33;11.70;99.90